Time;durP1;ratioP1;P1;durP2;ratioP2;P2;SDS_P1;SDS_P2;PMS_P1;PMS_P2;Temp;Humidity;BMP_temperature;BMP_pressure;BME280_temperature;BME280_humidity;BME280_pressure;Samples;Min_cycle;Max_cycle;Signal;HPM_P1;HPM_P2
2023/04/10 00:00:58;;;;;;;;;18.00;14.50;;;;;;;;5042605;28;11440;-87
2023/04/10 00:03:26;;;;;;;;;13.50;13.00;;;;;;;;5049661;28;11410;-85
2023/04/10 00:05:56;;;;;;;;;16.75;14.00;;;;;;;;5049992;28;11434;-86
2023/04/10 00:08:23;;;;;;;;;11.50;11.50;;;;;;;;5044185;28;11143;-85
2023/04/10 00:10:50;;;;;;;;;15.50;13.00;;;;;;;;5050788;28;11217;-86
2023/04/10 00:13:18;;;;;;;;;13.50;13.25;;;;;;;;5050699;28;11083;-85
2023/04/10 00:15:45;;;;;;;;;15.00;14.25;;;;;;;;5051923;28;11037;-85
2023/04/10 00:18:12;;;;;;;;;19.00;16.00;;;;;;;;5054219;28;11214;-85
2023/04/10 00:20:40;;;;;;;;;13.50;13.50;;;;;;;;5034420;28;11304;-86
2023/04/10 00:23:09;;;;;;;;;18.00;14.25;;;;;;;;5047626;28;11166;-85
2023/04/10 00:25:36;;;;;;;;;13.50;13.50;;;;;;;;5041751;28;11161;-85
2023/04/10 00:28:03;;;;;;;;;13.25;13.25;;;;;;;;5037467;28;11258;-85
2023/04/10 00:30:31;;;;;;;;;15.75;13.25;;;;;;;;5042119;28;11059;-85
2023/04/10 00:32:58;;;;;;;;;15.50;13.50;;;;;;;;5050030;28;11300;-85
2023/04/10 00:35:25;;;;;;;;;16.25;13.50;;;;;;;;5046685;28;11305;-85
2023/04/10 00:37:54;;;;;;;;;18.00;18.00;;;;;;;;5041337;28;11197;-85
2023/04/10 00:40:22;;;;;;;;;13.00;13.00;;;;;;;;5039886;28;11460;-85
2023/04/10 00:42:50;;;;;;;;;17.00;16.25;;;;;;;;5046251;28;11162;-85
2023/04/10 00:45:17;;;;;;;;;20.25;17.00;;;;;;;;5046947;28;11622;-85
2023/04/10 00:47:44;;;;;;;;;13.75;12.50;;;;;;;;5046004;28;11131;-86
2023/04/10 00:50:12;;;;;;;;;13.50;13.50;;;;;;;;5037513;28;11334;-84
2023/04/10 00:52:39;;;;;;;;;13.25;13.25;;;;;;;;5036789;28;11212;-85
2023/04/10 00:55:08;;;;;;;;;12.50;12.50;;;;;;;;5045477;28;11041;-84
2023/04/10 00:57:38;;;;;;;;;16.75;15.25;;;;;;;;5036500;28;11056;-86
2023/04/10 01:00:07;;;;;;;;;14.50;14.25;;;;;;;;5039903;28;10942;-84
2023/04/10 01:02:34;;;;;;;;;13.25;12.50;;;;;;;;5050672;28;11196;-85
2023/04/10 01:05:01;;;;;;;;;15.25;15.25;;;;;;;;5046377;28;11027;-85
2023/04/10 01:07:39;;;;;;;;;13.75;13.25;;;;;;;;5043890;28;11969;-85
2023/04/10 01:10:15;;;;;;;;;14.25;14.25;;;;;;;;5044089;28;11260;-85
2023/04/10 01:12:56;;;;;;;;;14.00;14.00;;;;;;;;5036123;28;11034;-85
2023/04/10 01:15:25;;;;;;;;;12.50;12.50;;;;;;;;5047698;28;11151;-86
2023/04/10 01:17:56;;;;;;;;;11.50;11.50;;;;;;;;5039565;28;10997;-86
2023/04/10 01:20:25;;;;;;;;;11.00;11.00;;;;;;;;5038243;28;10989;-86
2023/04/10 01:23:13;;;;;;;;;12.00;12.00;;;;;;;;5043650;28;10943;-86
2023/04/10 01:25:43;;;;;;;;;11.00;11.00;;;;;;;;5039292;28;10790;-86
2023/04/10 01:28:45;;;;;;;;;13.00;12.00;;;;;;;;5038240;28;10980;-86
2023/04/10 01:31:16;;;;;;;;;12.25;11.25;;;;;;;;5046093;28;10813;-86
2023/04/10 01:33:48;;;;;;;;;10.50;10.50;;;;;;;;5044359;28;10992;-86
2023/04/10 01:36:21;;;;;;;;;11.75;10.00;;;;;;;;5035761;28;10985;-86
2023/04/10 01:38:50;;;;;;;;;10.75;10.75;;;;;;;;5044609;28;10979;-86
2023/04/10 01:41:19;;;;;;;;;10.75;10.50;;;;;;;;5050269;28;11694;-84
2023/04/10 01:43:48;;;;;;;;;10.75;10.75;;;;;;;;5054503;28;10898;-86
2023/04/10 01:46:18;;;;;;;;;11.50;10.50;;;;;;;;5040731;28;10994;-86
2023/04/10 01:48:46;;;;;;;;;11.00;11.00;;;;;;;;5042779;28;11580;-86
2023/04/10 01:51:14;;;;;;;;;11.50;11.50;;;;;;;;5036402;28;10996;-85
2023/04/10 01:53:44;;;;;;;;;13.00;9.25;;;;;;;;5048577;28;10870;-86
2023/04/10 01:56:12;;;;;;;;;10.50;8.50;;;;;;;;5045571;28;11018;-86
2023/04/10 01:58:39;;;;;;;;;8.50;8.00;;;;;;;;5049105;28;11642;-85
2023/04/10 02:01:09;;;;;;;;;11.50;9.25;;;;;;;;5032814;28;10777;-86
2023/04/10 02:03:38;;;;;;;;;8.75;8.00;;;;;;;;5044298;28;10867;-86
2023/04/10 02:06:15;;;;;;;;;9.75;8.75;;;;;;;;5037811;28;11042;-86
2023/04/10 02:08:55;;;;;;;;;10.50;10.50;;;;;;;;5047851;28;10896;-87
2023/04/10 02:11:29;;;;;;;;;11.25;11.00;;;;;;;;5051369;28;10842;-86
2023/04/10 02:14:00;;;;;;;;;11.00;11.00;;;;;;;;5049899;28;11074;-85
2023/04/10 02:16:30;;;;;;;;;12.25;11.00;;;;;;;;5044130;28;11458;-85
2023/04/10 02:19:00;;;;;;;;;11.75;8.75;;;;;;;;5049330;28;11040;-85
2023/04/10 02:21:27;;;;;;;;;9.75;9.75;;;;;;;;5038991;28;10914;-85
2023/04/10 02:23:56;;;;;;;;;9.00;9.00;;;;;;;;5034783;28;10909;-86
2023/04/10 02:26:26;;;;;;;;;12.50;12.50;;;;;;;;5039563;28;10752;-85
2023/04/10 02:28:53;;;;;;;;;10.75;10.75;;;;;;;;5036091;28;10854;-84
2023/04/10 02:31:20;;;;;;;;;12.00;12.00;;;;;;;;5035269;28;10761;-85
2023/04/10 02:33:47;;;;;;;;;7.00;7.00;;;;;;;;5042753;28;10744;-85
2023/04/10 02:36:16;;;;;;;;;9.00;8.25;;;;;;;;5041709;28;10773;-85
2023/04/10 02:38:43;;;;;;;;;10.25;10.25;;;;;;;;5044244;28;10659;-84
2023/04/10 02:41:10;;;;;;;;;9.75;9.75;;;;;;;;5045202;28;10898;-84
2023/04/10 02:43:38;;;;;;;;;15.00;10.75;;;;;;;;5040083;28;10735;-85
2023/04/10 02:46:05;;;;;;;;;8.00;8.00;;;;;;;;5038043;28;10859;-85
2023/04/10 02:48:32;;;;;;;;;9.25;9.00;;;;;;;;5034760;28;10915;-85
2023/04/10 02:51:00;;;;;;;;;10.50;10.50;;;;;;;;5031483;28;10733;-85
2023/04/10 02:53:28;;;;;;;;;10.50;10.50;;;;;;;;5035479;28;10878;-85
2023/04/10 02:55:56;;;;;;;;;12.25;12.25;;;;;;;;5041427;28;10779;-86
2023/04/10 02:58:23;;;;;;;;;12.25;10.50;;;;;;;;5037207;28;10794;-85
2023/04/10 03:00:51;;;;;;;;;12.00;10.75;;;;;;;;5036632;28;10618;-85
2023/04/10 03:03:19;;;;;;;;;11.25;11.25;;;;;;;;5039211;28;10584;-85
2023/04/10 03:05:48;;;;;;;;;10.25;10.00;;;;;;;;5048503;28;10689;-86
2023/04/10 03:08:16;;;;;;;;;11.00;9.00;;;;;;;;5046627;28;10580;-84
2023/04/10 03:10:45;;;;;;;;;13.00;11.25;;;;;;;;5045408;28;10577;-85
2023/04/10 03:13:12;;;;;;;;;11.00;9.50;;;;;;;;5054390;28;10642;-86
2023/04/10 03:15:40;;;;;;;;;11.00;11.00;;;;;;;;5049421;28;11337;-84
2023/04/10 03:18:08;;;;;;;;;14.75;12.75;;;;;;;;5050688;28;10589;-85
2023/04/10 03:20:37;;;;;;;;;11.25;11.25;;;;;;;;5050527;28;10583;-85
2023/04/10 03:23:05;;;;;;;;;12.75;11.00;;;;;;;;5050394;28;10567;-84
2023/04/10 03:25:35;;;;;;;;;14.25;12.75;;;;;;;;5052559;28;10548;-85
2023/04/10 03:28:04;;;;;;;;;11.50;11.50;;;;;;;;5052457;28;10759;-85
2023/04/10 03:30:32;;;;;;;;;10.75;9.00;;;;;;;;5045851;28;10463;-85
2023/04/10 03:32:59;;;;;;;;;12.00;12.00;;;;;;;;5046371;28;10634;-85
2023/04/10 03:35:26;;;;;;;;;11.25;11.25;;;;;;;;5047989;28;10625;-85
2023/04/10 03:37:55;;;;;;;;;13.50;10.75;;;;;;;;5049323;28;10563;-84
2023/04/10 03:40:22;;;;;;;;;8.50;8.50;;;;;;;;5056387;28;10755;-84
2023/04/10 03:42:50;;;;;;;;;12.00;12.00;;;;;;;;5044477;28;10474;-86
2023/04/10 03:45:18;;;;;;;;;11.75;11.75;;;;;;;;5040708;28;10554;-86
2023/04/10 03:47:46;;;;;;;;;11.25;11.25;;;;;;;;5052213;28;10568;-86
2023/04/10 03:50:13;;;;;;;;;10.00;10.00;;;;;;;;5038327;28;10598;-86
2023/04/10 03:52:43;;;;;;;;;9.75;9.75;;;;;;;;5034175;28;10480;-86
2023/04/10 03:55:10;;;;;;;;;12.75;11.50;;;;;;;;5045878;28;10496;-85
2023/04/10 03:57:38;;;;;;;;;9.75;9.75;;;;;;;;5040613;28;10447;-86
2023/04/10 04:00:06;;;;;;;;;10.50;10.25;;;;;;;;5045589;28;10453;-86
2023/04/10 04:02:35;;;;;;;;;11.25;10.00;;;;;;;;5051399;28;10629;-85
2023/04/10 04:05:02;;;;;;;;;10.75;10.75;;;;;;;;5051043;28;10710;-86
2023/04/10 04:07:30;;;;;;;;;11.50;11.50;;;;;;;;5048637;28;10681;-85
2023/04/10 04:09:57;;;;;;;;;11.75;9.75;;;;;;;;5036671;28;10637;-85
2023/04/10 04:12:27;;;;;;;;;11.00;10.75;;;;;;;;5046951;28;10737;-86
2023/04/10 04:14:54;;;;;;;;;11.00;11.00;;;;;;;;5047249;28;10683;-84
2023/04/10 04:17:21;;;;;;;;;11.00;11.00;;;;;;;;5050720;28;10560;-85
2023/04/10 04:19:50;;;;;;;;;10.00;10.00;;;;;;;;5050917;28;10653;-87
2023/04/10 04:22:17;;;;;;;;;9.25;9.25;;;;;;;;5048119;28;10640;-85
2023/04/10 04:24:44;;;;;;;;;12.50;12.50;;;;;;;;5049733;28;10782;-86
2023/04/10 04:27:13;;;;;;;;;11.50;11.50;;;;;;;;5026780;28;10743;-85
2023/04/10 04:29:40;;;;;;;;;10.50;10.50;;;;;;;;5043092;28;10729;-85
2023/04/10 04:32:07;;;;;;;;;10.25;10.25;;;;;;;;5031242;28;10672;-86
2023/04/10 04:34:35;;;;;;;;;11.50;10.25;;;;;;;;5048361;28;10861;-85
2023/04/10 04:37:04;;;;;;;;;13.00;13.00;;;;;;;;5042331;28;10732;-85
2023/04/10 04:39:31;;;;;;;;;9.75;9.75;;;;;;;;5039398;28;10816;-85
2023/04/10 04:41:58;;;;;;;;;11.50;10.25;;;;;;;;5048917;28;10637;-85
2023/04/10 04:44:26;;;;;;;;;14.50;12.50;;;;;;;;5044523;28;10744;-87
2023/04/10 04:46:53;;;;;;;;;10.00;9.00;;;;;;;;5039975;28;10721;-86
2023/04/10 04:49:20;;;;;;;;;14.00;10.50;;;;;;;;5038119;28;10566;-86
2023/04/10 04:51:47;;;;;;;;;9.50;9.50;;;;;;;;5049547;28;10863;-87
2023/04/10 04:54:16;;;;;;;;;11.75;11.75;;;;;;;;5050257;28;10640;-86
2023/04/10 04:56:44;;;;;;;;;11.00;11.00;;;;;;;;5036306;28;10775;-87
2023/04/10 04:59:11;;;;;;;;;11.50;11.50;;;;;;;;5049114;28;10626;-86
2023/04/10 05:01:39;;;;;;;;;12.25;11.00;;;;;;;;5044442;28;10607;-86
2023/04/10 05:04:06;;;;;;;;;10.00;10.00;;;;;;;;5054836;28;10721;-85
2023/04/10 05:06:36;;;;;;;;;13.50;11.00;;;;;;;;5058333;28;10562;-85
2023/04/10 05:09:04;;;;;;;;;12.00;12.00;;;;;;;;5055648;28;10688;-89
2023/04/10 05:11:33;;;;;;;;;13.25;10.00;;;;;;;;5051047;28;10726;-86
2023/04/10 05:14:00;;;;;;;;;13.50;10.25;;;;;;;;5049213;28;10558;-86
2023/04/10 05:16:28;;;;;;;;;13.25;11.50;;;;;;;;5050954;28;10717;-86
2023/04/10 05:18:55;;;;;;;;;13.00;11.75;;;;;;;;5049753;28;10760;-87
2023/04/10 05:21:22;;;;;;;;;14.50;11.25;;;;;;;;5050179;28;10717;-87
2023/04/10 05:23:49;;;;;;;;;12.25;11.00;;;;;;;;5049939;28;10845;-86
2023/04/10 05:26:18;;;;;;;;;12.00;11.00;;;;;;;;5050141;28;10661;-85
2023/04/10 05:28:47;;;;;;;;;12.00;12.00;;;;;;;;5047226;28;10995;-86
2023/04/10 05:31:14;;;;;;;;;11.00;9.75;;;;;;;;5049820;28;10697;-87
2023/04/10 05:33:43;;;;;;;;;10.50;10.50;;;;;;;;5050804;28;10901;-84
2023/04/10 05:36:13;;;;;;;;;10.00;10.00;;;;;;;;5051744;28;10644;-86
2023/04/10 05:38:40;;;;;;;;;10.00;10.00;;;;;;;;5052209;28;10602;-87
2023/04/10 05:41:08;;;;;;;;;11.50;11.50;;;;;;;;5050479;28;10689;-87
2023/04/10 05:43:37;;;;;;;;;11.00;11.00;;;;;;;;5050319;28;10640;-87
2023/04/10 05:46:06;;;;;;;;;13.00;11.50;;;;;;;;5050616;28;10764;-87
2023/04/10 05:48:34;;;;;;;;;12.75;11.00;;;;;;;;5038232;28;10701;-85
2023/04/10 05:51:01;;;;;;;;;14.00;11.00;;;;;;;;5048998;28;10469;-86
2023/04/10 05:53:30;;;;;;;;;10.25;10.00;;;;;;;;5050129;28;10604;-87
2023/04/10 05:55:59;;;;;;;;;12.25;10.00;;;;;;;;5044430;28;10389;-88
2023/04/10 05:58:26;;;;;;;;;10.25;10.25;;;;;;;;5040275;28;10567;-86
2023/04/10 06:00:55;;;;;;;;;11.75;9.00;;;;;;;;5040054;28;10466;-86
2023/04/10 06:03:23;;;;;;;;;11.00;11.00;;;;;;;;5047441;28;10540;-86
2023/04/10 06:05:50;;;;;;;;;12.25;11.75;;;;;;;;5044963;28;10357;-84
2023/04/10 06:08:18;;;;;;;;;11.25;11.25;;;;;;;;5048933;28;10261;-87
2023/04/10 06:10:46;;;;;;;;;10.75;10.75;;;;;;;;5050243;28;10258;-85
2023/04/10 06:13:13;;;;;;;;;11.00;9.50;;;;;;;;5049652;28;10380;-85
2023/04/10 06:15:41;;;;;;;;;16.25;11.25;;;;;;;;5044006;28;10339;-86
2023/04/10 06:18:08;;;;;;;;;13.00;11.50;;;;;;;;5030695;28;10430;-85
2023/04/10 06:20:39;;;;;;;;;12.00;11.75;;;;;;;;5047856;28;10417;-78
2023/04/10 06:23:06;;;;;;;;;12.75;12.75;;;;;;;;5047118;28;10558;-75
2023/04/10 06:25:33;;;;;;;;;12.50;10.50;;;;;;;;5047357;28;10347;-70
2023/04/10 06:28:01;;;;;;;;;14.00;14.00;;;;;;;;5047108;28;10456;-72
2023/04/10 06:30:29;;;;;;;;;11.75;11.75;;;;;;;;5046634;28;10377;-72
2023/04/10 06:32:56;;;;;;;;;11.75;7.00;;;;;;;;5046907;28;10437;-71
2023/04/10 06:35:24;;;;;;;;;11.00;11.00;;;;;;;;5047067;28;10318;-73
2023/04/10 06:37:52;;;;;;;;;10.75;10.75;;;;;;;;5046872;28;10367;-73
2023/04/10 06:40:19;;;;;;;;;9.50;9.50;;;;;;;;5046176;28;10240;-72
2023/04/10 06:42:46;;;;;;;;;11.25;11.25;;;;;;;;5046403;28;10359;-72
2023/04/10 06:45:14;;;;;;;;;15.75;13.25;;;;;;;;5047096;28;10351;-72
2023/04/10 06:47:41;;;;;;;;;12.50;10.50;;;;;;;;5046886;28;10306;-72
2023/04/10 06:50:09;;;;;;;;;4.00;4.00;;;;;;;;5047328;28;10381;-71
2023/04/10 06:52:36;;;;;;;;;14.75;14.75;;;;;;;;5046070;28;10197;-71
2023/04/10 06:55:05;;;;;;;;;12.50;11.00;;;;;;;;5047079;28;10612;-75
2023/04/10 06:57:32;;;;;;;;;10.50;9.75;;;;;;;;5046539;28;10096;-73
2023/04/10 07:00:00;;;;;;;;;9.75;9.75;;;;;;;;5037027;28;10188;-72
2023/04/10 07:02:27;;;;;;;;;13.25;8.75;;;;;;;;5046243;28;9992;-72
2023/04/10 07:04:55;;;;;;;;;9.25;9.25;;;;;;;;5046507;28;10172;-71
2023/04/10 07:07:22;;;;;;;;;10.50;7.50;;;;;;;;5047193;28;10098;-71
2023/04/10 07:09:50;;;;;;;;;9.50;9.50;;;;;;;;5046259;28;10004;-74
2023/04/10 07:12:18;;;;;;;;;9.00;9.00;;;;;;;;5046926;28;10081;-74
2023/04/10 07:14:45;;;;;;;;;12.75;12.25;;;;;;;;5046787;28;9941;-72
2023/04/10 07:17:12;;;;;;;;;9.25;8.00;;;;;;;;5044611;28;10034;-73
2023/04/10 07:19:40;;;;;;;;;11.25;11.25;;;;;;;;5047150;28;10030;-75
2023/04/10 07:22:07;;;;;;;;;9.00;9.00;;;;;;;;5047172;28;10844;-76
2023/04/10 07:24:34;;;;;;;;;11.00;11.00;;;;;;;;5046884;28;10061;-73
2023/04/10 07:27:02;;;;;;;;;10.50;10.25;;;;;;;;5047111;28;9940;-73
2023/04/10 07:29:30;;;;;;;;;16.00;12.75;;;;;;;;5046990;28;9955;-74
2023/04/10 07:31:58;;;;;;;;;13.00;13.00;;;;;;;;5043864;28;10689;-73
2023/04/10 07:34:25;;;;;;;;;11.50;11.50;;;;;;;;5046946;28;9964;-73
2023/04/10 07:36:52;;;;;;;;;11.25;11.25;;;;;;;;5045125;28;9866;-73
2023/04/10 07:39:19;;;;;;;;;12.00;9.75;;;;;;;;5046828;28;10249;-73
2023/04/10 07:41:47;;;;;;;;;12.25;9.25;;;;;;;;5047604;28;9921;-73
2023/04/10 07:44:14;;;;;;;;;10.50;9.00;;;;;;;;5047850;28;9894;-71
2023/04/10 07:46:43;;;;;;;;;13.00;13.00;;;;;;;;5049853;28;9785;-74
2023/04/10 07:49:10;;;;;;;;;13.00;11.00;;;;;;;;5042315;28;9796;-73
2023/04/10 07:51:38;;;;;;;;;10.00;10.00;;;;;;;;5041302;28;9901;-75
2023/04/10 07:54:05;;;;;;;;;9.00;8.50;;;;;;;;5050945;28;9842;-76
2023/04/10 07:56:32;;;;;;;;;12.25;12.25;;;;;;;;5050375;28;9539;-75
2023/04/10 07:59:00;;;;;;;;;10.25;10.25;;;;;;;;5048277;28;9645;-75
2023/04/10 08:01:27;;;;;;;;;13.50;9.75;;;;;;;;5043558;28;9575;-73
2023/04/10 08:03:56;;;;;;;;;9.00;9.00;;;;;;;;5049629;28;9521;-74
2023/04/10 08:06:23;;;;;;;;;11.75;10.25;;;;;;;;5049824;28;9636;-73
2023/04/10 08:08:51;;;;;;;;;9.33;9.33;;;;;;;;5049736;28;9548;-73
2023/04/10 08:11:26;;;;;;;;;9.33;9.33;;;;;;;;5050325;28;9395;-73
2023/04/10 08:13:53;;;;;;;;;12.00;10.67;;;;;;;;5049619;28;10086;-74
2023/04/10 08:16:24;;;;;;;;;9.33;9.33;;;;;;;;5047711;28;10107;-74
2023/04/10 08:18:51;;;;;;;;;9.00;9.00;;;;;;;;5049770;28;9326;-73
2023/04/10 08:21:21;;;;;;;;;11.67;10.00;;;;;;;;5050132;28;9111;-72
2023/04/10 08:23:50;;;;;;;;;9.67;9.67;;;;;;;;5046601;28;9243;-72
2023/04/10 08:26:18;;;;;;;;;10.00;10.00;;;;;;;;5049981;28;9244;-73
2023/04/10 08:28:48;;;;;;;;;7.67;7.67;;;;;;;;5049751;28;9191;-72
2023/04/10 08:31:16;;;;;;;;;10.00;8.25;;;;;;;;5049050;28;8963;-73
2023/04/10 08:33:43;;;;;;;;;8.67;8.67;;;;;;;;5049614;28;8845;-74
2023/04/10 08:36:12;;;;;;;;;10.00;10.00;;;;;;;;5048174;28;8931;-74
2023/04/10 08:38:40;;;;;;;;;10.50;8.50;;;;;;;;5049094;28;8976;-71
2023/04/10 08:41:10;;;;;;;;;8.33;8.33;;;;;;;;5049594;28;8838;-72
2023/04/10 08:43:37;;;;;;;;;8.00;6.00;;;;;;;;5049400;28;8922;-73
2023/04/10 08:46:05;;;;;;;;;8.50;8.50;;;;;;;;5049072;28;8851;-73
2023/04/10 08:48:35;;;;;;;;;13.25;9.00;;;;;;;;5049505;28;8864;-73
2023/04/10 08:51:05;;;;;;;;;9.50;8.25;;;;;;;;5049116;28;9692;-73
2023/04/10 08:53:32;;;;;;;;;13.00;7.50;;;;;;;;5049532;28;8846;-72
2023/04/10 08:56:04;;;;;;;;;6.50;6.50;;;;;;;;5048716;28;8878;-73
2023/04/10 08:58:31;;;;;;;;;6.00;6.00;;;;;;;;5049559;28;8853;-73
2023/04/10 09:00:59;;;;;;;;;8.25;7.00;;;;;;;;5048082;28;9553;-73
2023/04/10 09:03:28;;;;;;;;;8.00;8.00;;;;;;;;5048326;28;8886;-72
2023/04/10 09:05:55;;;;;;;;;6.00;6.00;;;;;;;;5046957;28;8851;-73
2023/04/10 09:08:22;;;;;;;;;6.25;6.25;;;;;;;;5048581;28;8886;-72
2023/04/10 09:10:49;;;;;;;;;9.00;9.00;;;;;;;;5048135;28;8937;-73
2023/04/10 09:13:36;;;;;;;;;7.50;7.50;;;;;;;;5048769;28;8944;-72
2023/04/10 09:16:03;;;;;;;;;10.00;8.75;;;;;;;;5037509;28;8846;-72
2023/04/10 09:18:51;;;;;;;;;9.25;8.00;;;;;;;;5048496;28;8870;-74
2023/04/10 09:21:20;;;;;;;;;9.50;9.50;;;;;;;;5045415;28;8866;-73
2023/04/10 09:23:48;;;;;;;;;6.00;6.00;;;;;;;;5048137;28;8843;-73
2023/04/10 09:26:26;;;;;;;;;8.50;7.25;;;;;;;;5049009;28;8850;-73
2023/04/10 09:28:59;;;;;;;;;8.00;8.00;;;;;;;;5049114;28;8874;-72
2023/04/10 09:31:34;;;;;;;;;9.75;8.00;;;;;;;;5048676;28;8806;-73
2023/04/10 09:34:15;;;;;;;;;8.25;7.00;;;;;;;;5049839;28;8895;-73
2023/04/10 09:36:43;;;;;;;;;8.50;7.25;;;;;;;;5050453;28;8878;-72
2023/04/10 09:39:11;;;;;;;;;7.50;7.50;;;;;;;;5050536;28;8854;-73
2023/04/10 09:41:48;;;;;;;;;6.00;6.00;;;;;;;;5047275;28;8969;-72
2023/04/10 09:44:19;;;;;;;;;7.50;7.00;;;;;;;;5029911;28;8857;-72
2023/04/10 09:46:48;;;;;;;;;6.00;6.00;;;;;;;;5046887;28;8874;-72
2023/04/10 09:49:16;;;;;;;;;5.00;5.00;;;;;;;;5048635;28;9631;-72
2023/04/10 09:51:43;;;;;;;;;6.50;6.50;;;;;;;;5048272;28;8863;-73
2023/04/10 09:54:11;;;;;;;;;6.50;6.50;;;;;;;;5041744;28;8877;-72
2023/04/10 09:56:39;;;;;;;;;7.50;6.75;;;;;;;;5047532;28;8889;-72
2023/04/10 09:59:08;;;;;;;;;7.50;6.50;;;;;;;;5047954;28;9661;-73
2023/04/10 10:01:38;;;;;;;;;11.25;8.50;;;;;;;;5048651;28;8830;-72
2023/04/10 10:04:05;;;;;;;;;9.50;9.00;;;;;;;;5043838;28;8842;-71
2023/04/10 10:06:33;;;;;;;;;5.00;5.00;;;;;;;;5042889;28;9686;-74
2023/04/10 10:09:04;;;;;;;;;6.75;6.75;;;;;;;;5043806;28;8963;-74
2023/04/10 10:11:34;;;;;;;;;7.50;5.00;;;;;;;;5047478;28;8842;-73
2023/04/10 10:14:03;;;;;;;;;6.25;6.25;;;;;;;;5048139;28;8858;-74
2023/04/10 10:16:37;;;;;;;;;5.50;5.50;;;;;;;;5046257;28;8850;-74
2023/04/10 10:19:11;;;;;;;;;4.25;4.25;;;;;;;;5048784;28;8855;-76
2023/04/10 10:21:39;;;;;;;;;6.00;6.00;;;;;;;;5047263;28;8866;-73
2023/04/10 10:24:09;;;;;;;;;7.25;7.25;;;;;;;;5047346;28;9265;-74
2023/04/10 10:26:37;;;;;;;;;8.75;7.25;;;;;;;;5046949;28;9651;-75
2023/04/10 10:29:09;;;;;;;;;4.25;4.25;;;;;;;;5047437;28;8855;-74
2023/04/10 10:31:38;;;;;;;;;6.75;6.75;;;;;;;;5046359;28;8833;-74
2023/04/10 10:34:07;;;;;;;;;5.25;5.25;;;;;;;;5047162;28;8846;-74
2023/04/10 10:36:35;;;;;;;;;4.50;4.50;;;;;;;;5047430;28;8842;-76
2023/04/10 10:39:18;;;;;;;;;7.00;7.00;;;;;;;;5047776;28;8920;-75
2023/04/10 10:41:49;;;;;;;;;6.75;4.75;;;;;;;;5043403;28;8862;-77
2023/04/10 10:44:23;;;;;;;;;5.50;5.50;;;;;;;;5047331;28;8855;-73
2023/04/10 10:47:00;;;;;;;;;5.50;5.50;;;;;;;;5047066;28;8919;-74
2023/04/10 10:49:55;;;;;;;;;4.25;4.25;;;;;;;;5047006;28;8889;-73
2023/04/10 10:52:43;;;;;;;;;4.25;4.25;;;;;;;;5042632;28;8863;-75
2023/04/10 10:55:36;;;;;;;;;4.00;4.00;;;;;;;;5047448;28;9601;-72
2023/04/10 10:58:05;;;;;;;;;3.00;1.25;;;;;;;;5034476;28;9656;-73
2023/04/10 11:01:09;;;;;;;;;6.75;5.00;;;;;;;;5046834;28;8759;-76
2023/04/10 11:03:38;;;;;;;;;5.00;5.00;;;;;;;;5041260;28;8859;-75
2023/04/10 11:06:07;;;;;;;;;6.50;5.00;;;;;;;;5047109;28;8863;-75
2023/04/10 11:08:42;;;;;;;;;5.50;5.50;;;;;;;;5047030;28;8877;-75
2023/04/10 11:11:11;;;;;;;;;5.50;5.50;;;;;;;;5047287;28;8865;-75
2023/04/10 11:13:40;;;;;;;;;4.25;4.25;;;;;;;;5046609;28;8966;-77
2023/04/10 11:16:10;;;;;;;;;6.75;6.75;;;;;;;;5044320;28;8842;-76
2023/04/10 11:19:04;;;;;;;;;5.00;5.00;;;;;;;;5046819;28;9202;-77
2023/04/10 11:21:31;;;;;;;;;5.25;5.25;;;;;;;;5046832;28;8862;-75
2023/04/10 11:24:05;;;;;;;;;4.25;4.25;;;;;;;;5034945;28;8869;-77
2023/04/10 11:26:40;;;;;;;;;5.00;5.00;;;;;;;;5051033;28;8853;-77
2023/04/10 11:29:26;;;;;;;;;6.75;5.25;;;;;;;;5050955;28;9289;-75
2023/04/10 11:31:56;;;;;;;;;4.25;4.25;;;;;;;;5055851;28;8832;-76
2023/04/10 11:34:26;;;;;;;;;6.00;5.75;;;;;;;;5046244;28;8843;-74
2023/04/10 11:36:54;;;;;;;;;6.00;6.00;;;;;;;;5051867;28;9263;-73
2023/04/10 11:39:21;;;;;;;;;3.00;1.25;;;;;;;;5050644;28;8858;-73
2023/04/10 11:41:49;;;;;;;;;6.00;5.50;;;;;;;;5035712;28;8872;-73
2023/04/10 11:44:19;;;;;;;;;6.50;6.50;;;;;;;;5037419;28;9725;-73
2023/04/10 11:46:49;;;;;;;;;4.25;4.25;;;;;;;;5050806;28;8920;-74
2023/04/10 11:49:19;;;;;;;;;4.00;4.00;;;;;;;;5050418;28;8846;-73
2023/04/10 11:51:49;;;;;;;;;7.50;6.00;;;;;;;;5051066;28;8917;-74
2023/04/10 11:54:18;;;;;;;;;2.00;2.00;;;;;;;;5050384;28;8850;-76
2023/04/10 11:56:46;;;;;;;;;3.75;3.75;;;;;;;;5050627;28;8854;-76
2023/04/10 11:59:18;;;;;;;;;3.00;3.00;;;;;;;;5048909;28;8897;-76
2023/04/10 12:01:46;;;;;;;;;0.75;0.75;;;;;;;;5039642;28;8846;-75
2023/04/10 12:04:17;;;;;;;;;2.75;2.75;;;;;;;;5046377;28;8938;-76
2023/04/10 12:06:45;;;;;;;;;5.50;4.00;;;;;;;;5050190;28;8881;-76
2023/04/10 12:09:18;;;;;;;;;3.00;3.00;;;;;;;;5050350;28;8924;-76
2023/04/10 12:11:53;;;;;;;;;3.50;3.50;;;;;;;;5049643;28;8854;-76
2023/04/10 12:14:21;;;;;;;;;2.00;2.00;;;;;;;;5049963;28;8858;-78
2023/04/10 12:16:48;;;;;;;;;4.50;3.75;;;;;;;;5044529;28;8858;-80
2023/04/10 12:19:16;;;;;;;;;4.75;4.75;;;;;;;;5050142;28;8882;-76
2023/04/10 12:21:44;;;;;;;;;5.00;5.00;;;;;;;;5050640;28;8807;-76
2023/04/10 12:24:12;;;;;;;;;2.25;2.25;;;;;;;;5050994;28;8879;-77
2023/04/10 12:26:48;;;;;;;;;2.00;2.00;;;;;;;;5049837;28;8850;-77
2023/04/10 12:29:15;;;;;;;;;5.50;5.50;;;;;;;;5050730;28;8949;-76
2023/04/10 12:31:43;;;;;;;;;3.25;3.25;;;;;;;;5049277;28;8809;-77
2023/04/10 12:34:10;;;;;;;;;3.75;3.75;;;;;;;;5050077;28;9712;-74
2023/04/10 12:36:37;;;;;;;;;5.75;4.25;;;;;;;;5048584;28;8994;-74
2023/04/10 12:39:05;;;;;;;;;5.00;5.00;;;;;;;;5049301;28;8846;-76
2023/04/10 12:41:33;;;;;;;;;6.00;4.00;;;;;;;;5048247;28;8846;-74
2023/04/10 12:44:10;;;;;;;;;5.00;5.00;;;;;;;;5050049;28;8842;-76
2023/04/10 12:46:37;;;;;;;;;5.25;5.00;;;;;;;;5037722;28;8831;-76
2023/04/10 12:49:12;;;;;;;;;5.00;4.00;;;;;;;;5050076;28;8850;-79
2023/04/10 12:51:45;;;;;;;;;4.75;4.75;;;;;;;;5049535;28;8843;-79
2023/04/10 12:54:26;;;;;;;;;5.00;5.00;;;;;;;;5049933;28;8977;-73
2023/04/10 12:56:53;;;;;;;;;4.00;4.00;;;;;;;;5049538;28;8839;-78
2023/04/10 12:59:22;;;;;;;;;4.50;4.50;;;;;;;;5049567;28;8874;-77
2023/04/10 13:01:49;;;;;;;;;3.00;3.00;;;;;;;;5040970;28;9583;-80
2023/04/10 13:04:17;;;;;;;;;3.00;3.00;;;;;;;;5043584;28;9611;-78
2023/04/10 13:06:45;;;;;;;;;3.25;3.25;;;;;;;;5040352;28;8849;-79
2023/04/10 13:09:13;;;;;;;;;4.00;4.00;;;;;;;;5049742;28;9717;-76
2023/04/10 13:11:40;;;;;;;;;3.50;3.50;;;;;;;;5048862;28;9210;-77
2023/04/10 13:14:07;;;;;;;;;3.00;3.00;;;;;;;;5050248;28;8846;-79
2023/04/10 13:16:36;;;;;;;;;3.00;3.00;;;;;;;;5050915;28;8854;-81
2023/04/10 13:19:04;;;;;;;;;4.75;3.00;;;;;;;;5051933;28;8937;-76
2023/04/10 13:21:31;;;;;;;;;3.00;3.00;;;;;;;;5053238;28;8865;-78
2023/04/10 13:23:58;;;;;;;;;4.75;4.75;;;;;;;;5050865;28;8978;-77
2023/04/10 13:26:26;;;;;;;;;4.00;4.00;;;;;;;;5042572;28;8973;-78
2023/04/10 13:28:53;;;;;;;;;2.00;2.00;;;;;;;;5048862;28;9669;-78
2023/04/10 13:31:20;;;;;;;;;2.50;2.50;;;;;;;;5048512;28;8894;-76
2023/04/10 13:33:49;;;;;;;;;3.00;3.00;;;;;;;;5048908;28;8846;-76
2023/04/10 13:36:16;;;;;;;;;6.00;4.00;;;;;;;;5048837;28;8988;-77
2023/04/10 13:38:43;;;;;;;;;2.75;2.75;;;;;;;;5048298;28;8987;-75
2023/04/10 13:41:10;;;;;;;;;4.00;4.00;;;;;;;;5048869;28;8957;-76
2023/04/10 13:43:38;;;;;;;;;2.00;2.00;;;;;;;;5047976;28;8851;-74
2023/04/10 13:46:06;;;;;;;;;4.00;4.00;;;;;;;;5048504;28;8872;-77
2023/04/10 13:48:39;;;;;;;;;2.25;1.75;;;;;;;;5047749;28;8993;-75
2023/04/10 13:51:08;;;;;;;;;1.50;1.50;;;;;;;;5042495;28;8860;-75
2023/04/10 13:53:36;;;;;;;;;2.25;2.25;;;;;;;;5047873;28;8893;-75
2023/04/10 13:56:03;;;;;;;;;2.00;2.00;;;;;;;;5048416;28;8846;-78
2023/04/10 13:58:33;;;;;;;;;4.25;2.75;;;;;;;;5048156;28;8850;-75
2023/04/10 14:01:00;;;;;;;;;2.00;2.00;;;;;;;;5048060;28;8874;-75
2023/04/10 14:03:27;;;;;;;;;2.25;2.25;;;;;;;;5048322;28;8856;-76
2023/04/10 14:05:54;;;;;;;;;1.00;1.00;;;;;;;;5048150;28;8859;-79
2023/04/10 14:08:23;;;;;;;;;2.00;2.00;;;;;;;;5048545;28;8854;-75
2023/04/10 14:10:50;;;;;;;;;1.25;1.25;;;;;;;;5048191;28;8850;-74
2023/04/10 14:13:17;;;;;;;;;1.50;1.50;;;;;;;;5047767;28;8835;-76
2023/04/10 14:15:44;;;;;;;;;1.00;1.00;;;;;;;;5045352;28;8834;-77
2023/04/10 14:18:13;;;;;;;;;1.75;1.75;;;;;;;;5048341;28;8897;-74
2023/04/10 14:20:41;;;;;;;;;1.75;1.75;;;;;;;;5047717;28;8839;-73
2023/04/10 14:23:08;;;;;;;;;2.00;2.00;;;;;;;;5047903;28;8842;-78
2023/04/10 14:25:37;;;;;;;;;2.00;2.00;;;;;;;;5047261;28;8854;-73
2023/04/10 14:28:04;;;;;;;;;2.00;2.00;;;;;;;;5048219;28;8869;-75
2023/04/10 14:30:32;;;;;;;;;3.75;3.75;;;;;;;;5046849;28;8856;-75
2023/04/10 14:32:59;;;;;;;;;2.50;2.50;;;;;;;;5047795;28;8867;-72
2023/04/10 14:35:26;;;;;;;;;2.00;2.00;;;;;;;;5047542;28;8859;-73
2023/04/10 14:37:54;;;;;;;;;3.00;3.00;;;;;;;;5047186;28;8866;-74
2023/04/10 14:40:22;;;;;;;;;3.50;2.00;;;;;;;;5047845;28;9716;-75
2023/04/10 14:42:51;;;;;;;;;3.00;3.00;;;;;;;;5047921;28;8857;-75
2023/04/10 14:45:20;;;;;;;;;3.25;3.25;;;;;;;;5032951;28;8861;-77
2023/04/10 14:47:47;;;;;;;;;3.25;3.25;;;;;;;;5041478;28;8870;-75
2023/04/10 14:50:14;;;;;;;;;4.50;3.00;;;;;;;;5047453;28;8839;-76